echo '';

Nearby METAR Reports

 

ENRY - Rygge (nor-Afb), Norway
Distance from station: NV 23km
Oppdatert: 22/11/2017 04:20
Hovedsaklig skyet
Hovedsaklig skyet
 Vind fra NNØ
Vind: NNØ 13 km/h
Temperatur: -6°C
Vindkjøling: -12°C
Duggpunkt: -8°C
Fuktighet: 86%
Barometer: 1007 hPa
Clouds: Hovedsaklig skyet
Visibility: 10 km
Cloud details: Hovedsaklig skyet 183 m
2017/11/22 03:20 ENRY 220320Z 03007KT 010V070 9999 BKN006 M06/M08 Q1007
ENTO - Torp (civ/Nor-Af, Norway
Distance from station: V 47km
Oppdatert: 22/11/2017 04:20
Lett snø
Lett snø
 Vind fra NNØ
Vind: NNØ 24 km/h
Oversikt: Lett snø
Visibility: 4 km
2017/11/22 03:20 ENTO 220320Z AUTO 03013KT 4400 -SN ///024/// M06/M06 Q1006
 
ENSN - Skien/Geiterygge, Norway
Distance from station: V 87km
Oppdatert: 09/11/2015 09:50
NOT Current
Klart
Klart
 Vind fra SSV
Vind: SSV 19 km/h, Vindkast: 41 km/h
Temperatur: 7°C
Vindkjøling: 4°C
Duggpunkt: 3°C
Fuktighet: 76%
Barometer: 1000 hPa
Oversikt: Klart
Visibility: greater than 10 km
2015/11/09 08:50 ENSN 090850Z 20010G22KT 150V240 CAVOK 07/03 Q1000
ENGM - Oslo/Gardermoen, Norway
Distance from station: 0 107km
Oppdatert: 22/11/2017 04:20
Klart
Klart
 Vind fra varies
Vind: varies 4 km/h
Temperatur: -9°C
Duggpunkt: -11°C
Fuktighet: 86%
Barometer: 1008 hPa
Oversikt: Klart
Visibility: greater than 10 km
2017/11/22 03:20 ENGM 220320Z VRB02KT CAVOK M09/M11 Q1008
 
ENNO - Notodden, Norway
Distance from station: VNV 112km
Oppdatert: 21/11/2017 18:50
NOT Current
Klart
Klart
 Vind fra V
Vind: V 6 km/h
Temperatur: -8°C
Duggpunkt: -9°C
Fuktighet: 93%
Barometer: 1012 hPa
Oversikt: Klart
Visibility: greater than 10 km
2017/11/21 17:50 ENNO 211750Z 27003KT CAVOK M08/M09 Q1012
ESGT - Trollhattan (pvt, Sweden
Distance from station: SØ 125km
Oppdatert: 21/11/2017 20:20
NOT Current
Hovedsaklig skyet
Hovedsaklig skyet
 Vind fra calm
Vind: Stille
Temperatur: -3°C
Duggpunkt: -4°C
Fuktighet: 93%
Barometer: 1011 hPa
Clouds: Hovedsaklig skyet
Visibility: 10 km
Cloud details: Hovedsaklig skyet 366 m
2017/11/21 19:20 ESGT 211920Z 00000KT 9999 BKN012 M03/M04 Q1011
 
ESIB - Satenas (swe-Afb, Sweden
Distance from station: SØ 129km
Oppdatert: 22/11/2017 04:20
Overskyet
Overskyet
 Vind fra Ø
Vind: Ø 20 km/h
Temperatur: -1°C
Vindkjøling: -7°C
Duggpunkt: -2°C
Fuktighet: 93%
Barometer: 1006 hPa
Clouds: Overskyet
Visibility: 10 km
Cloud details: Hovedsaklig skyet 1280 m
Overskyet 2256 m
2017/11/22 03:20 ESIB 220320Z AUTO 10011KT 9999 BKN042/// OVC074/// M01/M02 Q1006
ESOK - Karlstad North, Sweden
Distance from station: ØNØ 129km
Oppdatert: 22/11/2017 04:20
Overskyet
Overskyet
 Vind fra ØNØ
Vind: ØNØ 13 km/h
Temperatur: -6°C
Vindkjøling: -12°C
Duggpunkt: -6°C
Fuktighet: 100%
Barometer: 1009 hPa
Clouds: Overskyet
Visibility: 10 km
Cloud details: Overskyet 152 m
2017/11/22 03:20 ESOK 220320Z AUTO 07007KT 9999 OVC005/// M06/M06 Q1009
 
ESGP - Goteborg/Save (a, Sweden
Distance from station: SSØ 169km
Oppdatert: 02/01/2017 11:20
NOT Current
Klart
Klart
 Vind fra calm
Vind: Stille
Temperatur: -2°C
Duggpunkt: -4°C
Fuktighet: 86%
Barometer: 1012 hPa
Clouds: Klart
Visibility: 10 km
2017/01/02 10:20 ESGP 021020Z AUTO 00000KT 9999 NCD M02/M04 Q1012
ESGG - Goteborg/Landvet, Sweden
Distance from station: SSØ 188km
Oppdatert: 22/11/2017 04:20
Lett snø, Overskyet
Lett snø, Overskyet
 Vind fra ØSØ
Vind: ØSØ 20 km/h
Temperatur: -4°C
Vindkjøling: -11°C
Duggpunkt: -5°C
Fuktighet: 93%
Barometer: 1004 hPa
Oversikt: Lett snø
Clouds: Overskyet
Visibility: 2 km
Cloud details: Overskyet 305 m
2017/11/22 03:20 ESGG 220320Z 11011KT 2100 -SN VV010 M04/M05 Q1004 R03/590295
 
EKSN - Sindal Airport, Denmark
Distance from station: SSV 199km
Oppdatert: 21/11/2017 13:50
NOT Current
Delvis skyet
Delvis skyet
 Vind fra SSØ
Vind: SSØ 7 km/h
Temperatur: 3°C
Vindkjøling: 1°C
Duggpunkt: 2°C
Fuktighet: 93%
Barometer: 1009 hPa
Clouds: Delvis skyet
Visibility: 10 km
Cloud details: Few Clouds 610 m
Delvis skyet 6096 m
2017/11/21 12:50 EKSN 211250Z 16004KT 9999 FEW020 SCT200 03/02 Q1009
ENCN - Kristiansand/Kje, Norway
Distance from station: VSV 209km
Oppdatert: 22/11/2017 04:20
Regn, Overskyet
Regn, Overskyet
 Vind fra Ø
Vind: Ø 24 km/h, Vindkast: 43 km/h
Temperatur: 3°C
Vindkjøling: -2°C
Duggpunkt: 1°C
Fuktighet: 87%
Barometer: 999 hPa
Oversikt: Regn
Clouds: Overskyet
Visibility: 4 km
Cloud details: Few Clouds 274 m
Overskyet 457 m
2017/11/22 03:20 ENCN 220320Z AUTO 09013G23KT 3800 RA FEW009/// OVC015/// 03/01 Q0999 RERA
 
ENFG - Fagernes/Leirin, Norway
Distance from station: NNV 220km
Oppdatert: 22/10/2017 12:20
NOT Current
Yr, Mist
Yr, Mist
 Vind fra Ø
Vind: Ø 9 km/h
Oversikt: Yr, Mist
Visibility: 3 km
2017/10/22 10:20 ENFG 221020Z 08005KT 3000 -DZ BR FEW/// SCT004 BKN006 00/M01 Q1013
ESOE - Orebro (private), Sweden
Distance from station: Ø 225km
Oppdatert: 22/11/2017 04:20
Overskyet
Overskyet
 Vind fra ØNØ
Vind: ØNØ 11 km/h
Temperatur: -4°C
Vindkjøling: -8°C
Duggpunkt: -4°C
Fuktighet: 100%
Barometer: 1010 hPa
Clouds: Overskyet
Visibility: 10 km
Cloud details: Overskyet 213 m
2017/11/22 03:20 ESOE 220320Z AUTO 06006KT 9999 OVC007/// M04/M04 Q1010
 
ESGJ - Jonkoping Airpor, Sweden
Distance from station: SØ 238km
Oppdatert: 22/11/2017 04:20
Overskyet
Overskyet
 Vind fra SØ
Vind: SØ 13 km/h
Temperatur: -4°C
Vindkjøling: -9°C
Duggpunkt: -4°C
Fuktighet: 100%
Barometer: 1006 hPa
Clouds: Overskyet
Visibility: 10 km
Cloud details: Hovedsaklig skyet 244 m
Overskyet 305 m
2017/11/22 03:20 ESGJ 220320Z AUTO 13007KT 9999 BKN008/// OVC010/// M04/M04 Q1006
EKYT - Alborg, Denmark
Distance from station: SSV 248km
Oppdatert: 22/11/2017 04:47
Lett regn, Hovedsaklig skyet
Lett regn, Hovedsaklig skyet
 Vind fra ØSØ
Vind: ØSØ 37 km/h
Temperatur: 4°C
Vindkjøling: -2°C
Duggpunkt: 4°C
Fuktighet: 100%
Barometer: 998 hPa
Oversikt: Lett regn
Clouds: Hovedsaklig skyet
Visibility: 15 miles
Cloud details: Few Clouds 152 m
Hovedsaklig skyet 274 m
Hovedsaklig skyet 457 m
2017/11/22 03:47 EKYT 220347Z AUTO 12020KT 9000NDV -RA FEW005/// BKN009/// BKN015/// 04/04 Q0998
 
ESCF - Linkoping/Malmen, Sweden
Distance from station: ØSØ 272km
Oppdatert: 22/11/2017 04:20
Overskyet
Overskyet
 Vind fra SØ
Vind: SØ 11 km/h
Temperatur: -4°C
Vindkjøling: -8°C
Duggpunkt: -4°C
Fuktighet: 100%
Barometer: 1010 hPa
Clouds: Overskyet
Visibility: 10 km
Cloud details: Overskyet 122 m
2017/11/22 03:20 ESCF 220320Z AUTO 13006KT 100V160 9999 OVC004/// M04/M04 Q1010
ESSD - Borlange (swe-Af, Sweden
Distance from station: ØNØ 279km
Oppdatert: 22/11/2017 04:20
Delvis skyet
Delvis skyet
 Vind fra calm
Vind: Stille
Temperatur: -11°C
Duggpunkt: -12°C
Fuktighet: 92%
Barometer: 1011 hPa
Clouds: Delvis skyet
Visibility: 3 km
Cloud details: Few Clouds 0 m
Delvis skyet 30 m
2017/11/22 03:20 ESSD 220320Z AUTO 00000KT 2800 FEW000/// SCT001/// M11/M12 Q1011 RESG
 
ESSL - Linkoping/Saab, Sweden
Distance from station: ØSØ 280km
Oppdatert: 22/11/2017 04:20
Overskyet
Overskyet
 Vind fra SØ
Vind: SØ 13 km/h
Temperatur: -3°C
Vindkjøling: -7°C
Duggpunkt: -3°C
Fuktighet: 100%
Barometer: 1010 hPa
Clouds: Overskyet
Visibility: 10 km
Cloud details: Overskyet 122 m
2017/11/22 03:20 ESSL 220320Z AUTO 14007KT 9999 OVC004/// M03/M03 Q1010
ESMT - Halmstad (swe-Af, Sweden
Distance from station: SSØ 303km
Oppdatert: 22/11/2017 04:20
Lett snø, Overskyet
Lett snø, Overskyet
 Vind fra ØSØ
Vind: ØSØ 26 km/h
Temperatur: 0°C
Vindkjøling: -6°C
Duggpunkt: 0°C
Fuktighet: 100%
Barometer: 1004 hPa
Oversikt: Lett snø
Clouds: Overskyet
Visibility: 1 km
Cloud details: Hovedsaklig skyet 152 m
Overskyet 274 m
2017/11/22 03:20 ESMT 220320Z AUTO 11014KT 0600 R01/P2000N R19/P2000N -SN BKN005/// OVC009/// 00/M00 Q1004